sensor_id;sensor_type;location;lat;lon;timestamp;pressure;altitude;pressure_sealevel;temperature;humidity
70256;BME280;57669;52.624;-1.688;2022-08-19T00:01:40;100533.40;;;18.66;56.00
70256;BME280;57669;52.624;-1.688;2022-08-19T00:04:05;100534.41;;;18.88;54.66
70256;BME280;57669;52.624;-1.688;2022-08-19T00:06:30;100535.43;;;18.80;54.89
70256;BME280;57669;52.624;-1.688;2022-08-19T00:08:55;100540.45;;;18.80;55.19
70256;BME280;57669;52.624;-1.688;2022-08-19T00:11:20;100545.83;;;18.84;54.73
70256;BME280;57669;52.624;-1.688;2022-08-19T00:13:45;100544.99;;;18.58;55.23
70256;BME280;57669;52.624;-1.688;2022-08-19T00:16:11;100551.45;;;18.54;55.90
70256;BME280;57669;52.624;-1.688;2022-08-19T00:18:36;100554.85;;;19.24;54.35
70256;BME280;57669;52.624;-1.688;2022-08-19T00:21:02;100558.83;;;18.94;54.08
70256;BME280;57669;52.624;-1.688;2022-08-19T00:23:28;100554.68;;;18.80;54.77
70256;BME280;57669;52.624;-1.688;2022-08-19T00:25:53;100550.00;;;19.08;54.21
70256;BME280;57669;52.624;-1.688;2022-08-19T00:28:19;100553.19;;;19.09;54.33
70256;BME280;57669;52.624;-1.688;2022-08-19T00:30:45;100551.60;;;18.52;54.95
70256;BME280;57669;52.624;-1.688;2022-08-19T00:33:10;100550.94;;;18.69;55.47
70256;BME280;57669;52.624;-1.688;2022-08-19T00:35:36;100552.72;;;18.98;54.92
70256;BME280;57669;52.624;-1.688;2022-08-19T00:38:01;100549.12;;;18.40;55.96
70256;BME280;57669;52.624;-1.688;2022-08-19T00:40:27;100546.22;;;19.19;54.44
70256;BME280;57669;52.624;-1.688;2022-08-19T00:42:53;100541.07;;;18.89;54.87
70256;BME280;57669;52.624;-1.688;2022-08-19T00:45:21;100541.26;;;18.74;55.44
70256;BME280;57669;52.624;-1.688;2022-08-19T00:47:44;100540.62;;;18.58;54.19
70256;BME280;57669;52.624;-1.688;2022-08-19T00:50:12;100537.77;;;18.41;54.81
70256;BME280;57669;52.624;-1.688;2022-08-19T00:52:38;100541.47;;;19.18;53.63
70256;BME280;57669;52.624;-1.688;2022-08-19T00:55:02;100546.99;;;19.12;53.72
70256;BME280;57669;52.624;-1.688;2022-08-19T00:57:30;100548.63;;;19.02;53.44
70256;BME280;57669;52.624;-1.688;2022-08-19T00:59:54;100547.21;;;18.98;53.32
70256;BME280;57669;52.624;-1.688;2022-08-19T01:02:18;100542.94;;;18.89;53.21
70256;BME280;57669;52.624;-1.688;2022-08-19T01:04:43;100549.89;;;19.04;52.22
70256;BME280;57669;52.624;-1.688;2022-08-19T01:07:09;100548.98;;;19.22;52.38
70256;BME280;57669;52.624;-1.688;2022-08-19T01:09:35;100554.46;;;18.89;53.14
70256;BME280;57669;52.624;-1.688;2022-08-19T01:12:01;100554.10;;;18.13;54.81
70256;BME280;57669;52.624;-1.688;2022-08-19T01:14:26;100556.69;;;18.75;54.25
70256;BME280;57669;52.624;-1.688;2022-08-19T01:16:53;100550.51;;;18.63;54.59
70256;BME280;57669;52.624;-1.688;2022-08-19T01:19:22;100550.30;;;18.88;53.59
70256;BME280;57669;52.624;-1.688;2022-08-19T01:21:48;100545.37;;;17.92;55.19
70256;BME280;57669;52.624;-1.688;2022-08-19T01:24:08;100542.52;;;18.12;54.83
70256;BME280;57669;52.624;-1.688;2022-08-19T01:26:39;100545.03;;;18.20;55.64
70256;BME280;57669;52.624;-1.688;2022-08-19T01:29:00;100547.24;;;18.00;56.59
70256;BME280;57669;52.624;-1.688;2022-08-19T01:31:27;100543.56;;;18.61;54.86
70256;BME280;57669;52.624;-1.688;2022-08-19T01:33:53;100546.06;;;18.40;54.81
70256;BME280;57669;52.624;-1.688;2022-08-19T01:36:23;100547.15;;;18.72;54.51
70256;BME280;57669;52.624;-1.688;2022-08-19T01:38:43;100545.11;;;18.32;54.55
70256;BME280;57669;52.624;-1.688;2022-08-19T01:41:08;100545.21;;;18.86;53.25
70256;BME280;57669;52.624;-1.688;2022-08-19T01:43:33;100544.19;;;18.29;54.51
70256;BME280;57669;52.624;-1.688;2022-08-19T01:45:59;100550.56;;;18.03;55.54
70256;BME280;57669;52.624;-1.688;2022-08-19T01:48:24;100548.85;;;18.70;54.14
70256;BME280;57669;52.624;-1.688;2022-08-19T01:50:50;100550.59;;;18.42;55.12
70256;BME280;57669;52.624;-1.688;2022-08-19T01:53:16;100552.92;;;17.81;56.58
70256;BME280;57669;52.624;-1.688;2022-08-19T01:55:43;100556.02;;;18.16;56.81
70256;BME280;57669;52.624;-1.688;2022-08-19T01:58:09;100557.83;;;17.90;56.91
70256;BME280;57669;52.624;-1.688;2022-08-19T02:00:33;100566.67;;;17.69;57.80
70256;BME280;57669;52.624;-1.688;2022-08-19T02:02:58;100570.24;;;17.85;56.96
70256;BME280;57669;52.624;-1.688;2022-08-19T02:05:24;100570.56;;;17.97;56.17
70256;BME280;57669;52.624;-1.688;2022-08-19T02:07:50;100571.32;;;17.89;56.32
70256;BME280;57669;52.624;-1.688;2022-08-19T02:10:18;100572.07;;;17.88;56.38
70256;BME280;57669;52.624;-1.688;2022-08-19T02:12:41;100575.27;;;17.59;57.54
70256;BME280;57669;52.624;-1.688;2022-08-19T02:15:07;100571.02;;;18.04;56.66
70256;BME280;57669;52.624;-1.688;2022-08-19T02:17:32;100567.25;;;18.44;56.17
70256;BME280;57669;52.624;-1.688;2022-08-19T02:19:58;100573.92;;;18.37;55.15
70256;BME280;57669;52.624;-1.688;2022-08-19T02:22:24;100578.32;;;17.57;56.95
70256;BME280;57669;52.624;-1.688;2022-08-19T02:24:49;100577.10;;;17.67;57.82
70256;BME280;57669;52.624;-1.688;2022-08-19T02:27:15;100573.44;;;17.75;57.78
70256;BME280;57669;52.624;-1.688;2022-08-19T02:29:40;100577.54;;;17.96;56.71
70256;BME280;57669;52.624;-1.688;2022-08-19T02:32:06;100577.73;;;17.89;57.45
70256;BME280;57669;52.624;-1.688;2022-08-19T02:34:31;100573.38;;;17.54;58.27
70256;BME280;57669;52.624;-1.688;2022-08-19T02:36:57;100578.75;;;17.67;57.81
70256;BME280;57669;52.624;-1.688;2022-08-19T02:39:23;100579.76;;;17.50;58.25
70256;BME280;57669;52.624;-1.688;2022-08-19T02:41:48;100586.73;;;17.70;57.77
70256;BME280;57669;52.624;-1.688;2022-08-19T02:44:14;100589.42;;;17.77;57.64
70256;BME280;57669;52.624;-1.688;2022-08-19T02:46:40;100586.64;;;17.66;56.71
70256;BME280;57669;52.624;-1.688;2022-08-19T02:49:07;100584.11;;;17.61;56.64
70256;BME280;57669;52.624;-1.688;2022-08-19T02:51:33;100585.39;;;17.74;56.35
70256;BME280;57669;52.624;-1.688;2022-08-19T02:53:57;100582.34;;;17.64;55.94
70256;BME280;57669;52.624;-1.688;2022-08-19T02:56:23;100585.66;;;18.22;56.33
70256;BME280;57669;52.624;-1.688;2022-08-19T02:58:48;100591.04;;;17.79;56.04
70256;BME280;57669;52.624;-1.688;2022-08-19T03:01:20;100592.37;;;17.85;55.83
70256;BME280;57669;52.624;-1.688;2022-08-19T03:03:39;100598.25;;;17.83;55.84
70256;BME280;57669;52.624;-1.688;2022-08-19T03:06:09;100598.84;;;18.06;54.65
70256;BME280;57669;52.624;-1.688;2022-08-19T03:08:31;100601.51;;;18.23;54.63
70256;BME280;57669;52.624;-1.688;2022-08-19T03:10:56;100616.47;;;18.03;55.01
70256;BME280;57669;52.624;-1.688;2022-08-19T03:13:22;100621.00;;;18.26;49.97
70256;BME280;57669;52.624;-1.688;2022-08-19T03:15:48;100619.79;;;17.68;44.80
70256;BME280;57669;52.624;-1.688;2022-08-19T03:18:14;100622.04;;;18.10;44.42
70256;BME280;57669;52.624;-1.688;2022-08-19T03:20:41;100618.11;;;18.21;41.55
70256;BME280;57669;52.624;-1.688;2022-08-19T03:23:04;100626.24;;;17.91;41.85
70256;BME280;57669;52.624;-1.688;2022-08-19T03:25:30;100626.47;;;17.54;41.57
70256;BME280;57669;52.624;-1.688;2022-08-19T03:27:56;100626.81;;;18.49;40.44
70256;BME280;57669;52.624;-1.688;2022-08-19T03:30:21;100633.95;;;17.66;41.68
70256;BME280;57669;52.624;-1.688;2022-08-19T03:32:47;100635.62;;;17.95;41.07
70256;BME280;57669;52.624;-1.688;2022-08-19T03:35:13;100640.43;;;18.31;40.58
70256;BME280;57669;52.624;-1.688;2022-08-19T03:37:38;100638.74;;;18.48;40.62
70256;BME280;57669;52.624;-1.688;2022-08-19T03:40:04;100638.99;;;18.21;40.78
70256;BME280;57669;52.624;-1.688;2022-08-19T03:42:29;100637.92;;;18.15;40.80
70256;BME280;57669;52.624;-1.688;2022-08-19T03:44:54;100639.71;;;18.29;41.00
70256;BME280;57669;52.624;-1.688;2022-08-19T03:47:20;100643.36;;;17.80;41.23
70256;BME280;57669;52.624;-1.688;2022-08-19T03:49:46;100644.53;;;17.85;41.56
70256;BME280;57669;52.624;-1.688;2022-08-19T03:52:11;100649.15;;;17.93;41.90
70256;BME280;57669;52.624;-1.688;2022-08-19T03:54:38;100644.94;;;18.56;40.97
70256;BME280;57669;52.624;-1.688;2022-08-19T03:57:03;100651.37;;;18.26;41.71
70256;BME280;57669;52.624;-1.688;2022-08-19T03:59:32;100653.89;;;17.96;41.63
70256;BME280;57669;52.624;-1.688;2022-08-19T04:01:55;100650.60;;;18.04;41.90
70256;BME280;57669;52.624;-1.688;2022-08-19T04:04:20;100655.31;;;18.13;41.81
70256;BME280;57669;52.624;-1.688;2022-08-19T04:06:45;100651.11;;;17.23;42.37
70256;BME280;57669;52.624;-1.688;2022-08-19T04:09:11;100659.55;;;17.16;43.22
70256;BME280;57669;52.624;-1.688;2022-08-19T04:11:41;100659.10;;;17.85;42.32
70256;BME280;57669;52.624;-1.688;2022-08-19T04:14:02;100659.29;;;17.58;42.48
70256;BME280;57669;52.624;-1.688;2022-08-19T04:16:28;100661.49;;;17.72;42.36
70256;BME280;57669;52.624;-1.688;2022-08-19T04:18:54;100654.73;;;18.20;42.20
70256;BME280;57669;52.624;-1.688;2022-08-19T04:21:22;100651.78;;;17.70;42.20
70256;BME280;57669;52.624;-1.688;2022-08-19T04:23:46;100654.53;;;17.14;42.96
70256;BME280;57669;52.624;-1.688;2022-08-19T04:26:12;100651.17;;;17.43;42.05
70256;BME280;57669;52.624;-1.688;2022-08-19T04:28:36;100651.53;;;17.82;42.29
70256;BME280;57669;52.624;-1.688;2022-08-19T04:31:02;100655.72;;;17.93;41.62
70256;BME280;57669;52.624;-1.688;2022-08-19T04:33:27;100658.42;;;18.13;41.78
70256;BME280;57669;52.624;-1.688;2022-08-19T04:35:53;100666.45;;;18.21;41.75
70256;BME280;57669;52.624;-1.688;2022-08-19T04:38:20;100672.05;;;17.60;42.09
70256;BME280;57669;52.624;-1.688;2022-08-19T04:40:45;100669.77;;;17.70;42.20
70256;BME280;57669;52.624;-1.688;2022-08-19T04:43:10;100672.82;;;18.03;41.73
70256;BME280;57669;52.624;-1.688;2022-08-19T04:45:36;100679.17;;;17.70;42.07
70256;BME280;57669;52.624;-1.688;2022-08-19T04:48:00;100686.98;;;18.62;41.36
70256;BME280;57669;52.624;-1.688;2022-08-19T04:50:26;100686.67;;;17.99;41.63
70256;BME280;57669;52.624;-1.688;2022-08-19T04:52:51;100693.21;;;18.41;42.01
70256;BME280;57669;52.624;-1.688;2022-08-19T04:55:17;100692.72;;;18.27;41.77
70256;BME280;57669;52.624;-1.688;2022-08-19T04:57:42;100699.40;;;17.73;42.48
70256;BME280;57669;52.624;-1.688;2022-08-19T05:00:09;100698.87;;;17.20;43.34
70256;BME280;57669;52.624;-1.688;2022-08-19T05:02:34;100701.16;;;17.30;43.07
70256;BME280;57669;52.624;-1.688;2022-08-19T05:04:59;100699.54;;;16.96;43.60
70256;BME280;57669;52.624;-1.688;2022-08-19T05:07:25;100707.00;;;17.49;42.99
70256;BME280;57669;52.624;-1.688;2022-08-19T05:09:51;100710.86;;;17.64;42.69
70256;BME280;57669;52.624;-1.688;2022-08-19T05:12:16;100713.75;;;16.89;42.98
70256;BME280;57669;52.624;-1.688;2022-08-19T05:14:41;100718.44;;;17.27;42.67
70256;BME280;57669;52.624;-1.688;2022-08-19T05:17:07;100718.84;;;17.26;42.89
70256;BME280;57669;52.624;-1.688;2022-08-19T05:19:32;100720.22;;;17.87;42.44
70256;BME280;57669;52.624;-1.688;2022-08-19T05:21:59;100718.59;;;17.19;43.00
70256;BME280;57669;52.624;-1.688;2022-08-19T05:24:24;100723.04;;;17.26;42.66
70256;BME280;57669;52.624;-1.688;2022-08-19T05:26:52;100724.87;;;17.46;42.31
70256;BME280;57669;52.624;-1.688;2022-08-19T05:29:17;100730.66;;;17.30;42.55
70256;BME280;57669;52.624;-1.688;2022-08-19T05:31:41;100736.31;;;17.83;42.07
70256;BME280;57669;52.624;-1.688;2022-08-19T05:34:07;100733.96;;;17.72;42.17
70256;BME280;57669;52.624;-1.688;2022-08-19T05:36:35;100735.21;;;16.36;43.42
70256;BME280;57669;52.624;-1.688;2022-08-19T05:38:58;100742.07;;;16.39;43.04
70256;BME280;57669;52.624;-1.688;2022-08-19T05:41:23;100736.20;;;16.90;42.62
70256;BME280;57669;52.624;-1.688;2022-08-19T05:43:49;100738.35;;;16.68;42.16
70256;BME280;57669;52.624;-1.688;2022-08-19T05:46:17;100738.43;;;17.84;41.57
70256;BME280;57669;52.624;-1.688;2022-08-19T05:48:40;100746.71;;;17.65;41.63
70256;BME280;57669;52.624;-1.688;2022-08-19T05:51:06;100751.29;;;17.52;41.46
70256;BME280;57669;52.624;-1.688;2022-08-19T05:53:32;100756.99;;;17.55;41.46
70256;BME280;57669;52.624;-1.688;2022-08-19T05:55:56;100754.91;;;17.27;42.21
70256;BME280;57669;52.624;-1.688;2022-08-19T05:58:22;100757.22;;;17.32;42.33
70256;BME280;57669;52.624;-1.688;2022-08-19T06:00:48;100767.95;;;16.85;43.09
70256;BME280;57669;52.624;-1.688;2022-08-19T06:03:14;100771.80;;;16.85;43.54
70256;BME280;57669;52.624;-1.688;2022-08-19T06:05:40;100771.26;;;16.68;44.01
70256;BME280;57669;52.624;-1.688;2022-08-19T06:08:05;100769.23;;;16.33;42.90
70256;BME280;57669;52.624;-1.688;2022-08-19T06:10:31;100772.57;;;16.53;42.98
70256;BME280;57669;52.624;-1.688;2022-08-19T06:12:56;100769.71;;;16.29;43.28
70256;BME280;57669;52.624;-1.688;2022-08-19T06:15:22;100774.33;;;16.31;43.31
70256;BME280;57669;52.624;-1.688;2022-08-19T06:17:48;100773.65;;;16.50;43.00
70256;BME280;57669;52.624;-1.688;2022-08-19T06:20:14;100769.78;;;15.99;43.93
70256;BME280;57669;52.624;-1.688;2022-08-19T06:22:40;100768.04;;;17.18;42.18
70256;BME280;57669;52.624;-1.688;2022-08-19T06:25:06;100776.15;;;16.76;43.05
70256;BME280;57669;52.624;-1.688;2022-08-19T06:27:31;100773.28;;;16.43;43.36
70256;BME280;57669;52.624;-1.688;2022-08-19T06:29:56;100770.08;;;16.08;43.84
70256;BME280;57669;52.624;-1.688;2022-08-19T06:32:22;100774.82;;;16.18;44.48
70256;BME280;57669;52.624;-1.688;2022-08-19T06:34:47;100772.66;;;15.29;46.87
70256;BME280;57669;52.624;-1.688;2022-08-19T06:37:14;100770.61;;;15.10;47.50
70256;BME280;57669;52.624;-1.688;2022-08-19T06:39:40;100773.12;;;14.82;48.55
70256;BME280;57669;52.624;-1.688;2022-08-19T06:42:06;100775.02;;;14.73;49.72
70256;BME280;57669;52.624;-1.688;2022-08-19T06:44:31;100772.54;;;14.75;50.41
70256;BME280;57669;52.624;-1.688;2022-08-19T06:46:56;100772.87;;;15.02;49.90
70256;BME280;57669;52.624;-1.688;2022-08-19T06:49:21;100779.16;;;14.90;49.98
70256;BME280;57669;52.624;-1.688;2022-08-19T06:51:48;100779.04;;;15.76;49.04
70256;BME280;57669;52.624;-1.688;2022-08-19T06:54:12;100786.64;;;15.75;48.61
70256;BME280;57669;52.624;-1.688;2022-08-19T06:56:38;100778.12;;;16.09;49.40
70256;BME280;57669;52.624;-1.688;2022-08-19T06:59:05;100780.12;;;14.36;52.33
70256;BME280;57669;52.624;-1.688;2022-08-19T07:01:29;100787.62;;;14.59;52.39
70256;BME280;57669;52.624;-1.688;2022-08-19T07:03:55;100789.77;;;14.85;51.92
70256;BME280;57669;52.624;-1.688;2022-08-19T07:06:21;100789.79;;;15.41;50.74
70256;BME280;57669;52.624;-1.688;2022-08-19T07:08:47;100788.93;;;15.40;50.64
70256;BME280;57669;52.624;-1.688;2022-08-19T07:11:14;100788.26;;;14.93;49.90
70256;BME280;57669;52.624;-1.688;2022-08-19T07:13:38;100790.53;;;15.51;50.28
70256;BME280;57669;52.624;-1.688;2022-08-19T07:18:28;100794.66;;;15.26;50.78
70256;BME280;57669;52.624;-1.688;2022-08-19T07:21:03;100799.90;;;15.08;50.61
70256;BME280;57669;52.624;-1.688;2022-08-19T07:23:20;100799.94;;;15.67;49.99
70256;BME280;57669;52.624;-1.688;2022-08-19T07:25:46;100798.00;;;15.43;49.77
70256;BME280;57669;52.624;-1.688;2022-08-19T07:28:11;100809.92;;;14.89;51.62
70256;BME280;57669;52.624;-1.688;2022-08-19T07:30:37;100816.23;;;14.11;53.83
70256;BME280;57669;52.624;-1.688;2022-08-19T07:33:03;100817.75;;;15.09;52.25
70256;BME280;57669;52.624;-1.688;2022-08-19T07:35:28;100813.76;;;15.42;51.36
70256;BME280;57669;52.624;-1.688;2022-08-19T07:37:54;100814.30;;;15.57;51.09
70256;BME280;57669;52.624;-1.688;2022-08-19T07:40:20;100818.69;;;15.25;50.72
70256;BME280;57669;52.624;-1.688;2022-08-19T07:42:45;100821.75;;;14.98;50.91
70256;BME280;57669;52.624;-1.688;2022-08-19T07:45:11;100817.40;;;14.72;51.69
70256;BME280;57669;52.624;-1.688;2022-08-19T07:47:37;100824.69;;;15.27;50.00
70256;BME280;57669;52.624;-1.688;2022-08-19T07:50:05;100826.95;;;14.85;50.70
70256;BME280;57669;52.624;-1.688;2022-08-19T07:52:28;100829.36;;;14.75;50.47
70256;BME280;57669;52.624;-1.688;2022-08-19T07:54:55;100833.97;;;14.64;50.01
70256;BME280;57669;52.624;-1.688;2022-08-19T07:57:19;100836.23;;;15.38;49.53
70256;BME280;57669;52.624;-1.688;2022-08-19T07:59:45;100832.90;;;15.03;49.29
70256;BME280;57669;52.624;-1.688;2022-08-19T08:02:10;100830.33;;;15.13;49.16
70256;BME280;57669;52.624;-1.688;2022-08-19T08:04:36;100827.71;;;15.71;47.88
70256;BME280;57669;52.624;-1.688;2022-08-19T08:07:02;100827.09;;;15.37;48.22
70256;BME280;57669;52.624;-1.688;2022-08-19T08:09:30;100824.92;;;15.87;46.93
70256;BME280;57669;52.624;-1.688;2022-08-19T08:11:54;100825.53;;;15.23;47.99
70256;BME280;57669;52.624;-1.688;2022-08-19T08:14:21;100836.18;;;15.33;46.68
70256;BME280;57669;52.624;-1.688;2022-08-19T08:16:44;100848.66;;;14.98;47.63
70256;BME280;57669;52.624;-1.688;2022-08-19T08:19:10;100836.85;;;15.41;46.89
70256;BME280;57669;52.624;-1.688;2022-08-19T08:21:35;100840.35;;;15.49;46.46
70256;BME280;57669;52.624;-1.688;2022-08-19T08:24:01;100845.22;;;15.24;45.66
70256;BME280;57669;52.624;-1.688;2022-08-19T08:26:26;100846.14;;;15.16;44.09
70256;BME280;57669;52.624;-1.688;2022-08-19T08:28:52;100850.70;;;15.15;44.78
70256;BME280;57669;52.624;-1.688;2022-08-19T08:31:18;100859.78;;;14.87;42.72
70256;BME280;57669;52.624;-1.688;2022-08-19T08:33:43;100853.66;;;15.80;41.65
70256;BME280;57669;52.624;-1.688;2022-08-19T08:36:10;100854.19;;;15.04;40.27
70256;BME280;57669;52.624;-1.688;2022-08-19T08:38:36;100844.85;;;15.85;38.43
70256;BME280;57669;52.624;-1.688;2022-08-19T08:41:08;100851.52;;;15.87;39.04
70256;BME280;57669;52.624;-1.688;2022-08-19T08:43:29;100855.43;;;15.81;37.90
70256;BME280;57669;52.624;-1.688;2022-08-19T08:45:57;100853.64;;;15.96;37.88
70256;BME280;57669;52.624;-1.688;2022-08-19T08:48:20;100860.26;;;15.30;39.18
70256;BME280;57669;52.624;-1.688;2022-08-19T08:50:46;100853.58;;;14.86;39.47
70256;BME280;57669;52.624;-1.688;2022-08-19T08:53:14;100858.71;;;15.33;39.07
70256;BME280;57669;52.624;-1.688;2022-08-19T08:55:34;100850.47;;;15.81;37.81
70256;BME280;57669;52.624;-1.688;2022-08-19T08:58:04;100856.70;;;16.07;37.43
70256;BME280;57669;52.624;-1.688;2022-08-19T09:00:28;100860.68;;;15.56;38.37
70256;BME280;57669;52.624;-1.688;2022-08-19T09:02:51;100853.36;;;16.18;37.34
70256;BME280;57669;52.624;-1.688;2022-08-19T09:05:18;100859.84;;;15.95;36.61
70256;BME280;57669;52.624;-1.688;2022-08-19T09:07:49;100862.81;;;16.12;36.61
70256;BME280;57669;52.624;-1.688;2022-08-19T09:10:15;100862.83;;;16.35;36.75
70256;BME280;57669;52.624;-1.688;2022-08-19T09:12:41;100865.17;;;17.03;35.70
70256;BME280;57669;52.624;-1.688;2022-08-19T09:15:05;100868.62;;;16.17;37.19
70256;BME280;57669;52.624;-1.688;2022-08-19T09:17:29;100855.07;;;17.01;35.84
70256;BME280;57669;52.624;-1.688;2022-08-19T09:19:53;100866.84;;;16.85;36.71
70256;BME280;57669;52.624;-1.688;2022-08-19T09:22:17;100863.41;;;16.78;36.02
70256;BME280;57669;52.624;-1.688;2022-08-19T09:24:43;100862.93;;;16.76;36.14
70256;BME280;57669;52.624;-1.688;2022-08-19T09:27:08;100862.27;;;16.94;36.00
70256;BME280;57669;52.624;-1.688;2022-08-19T09:29:34;100862.40;;;17.24;35.56
70256;BME280;57669;52.624;-1.688;2022-08-19T09:32:00;100862.81;;;17.21;36.11
70256;BME280;57669;52.624;-1.688;2022-08-19T09:34:25;100864.29;;;17.84;36.30
70256;BME280;57669;52.624;-1.688;2022-08-19T09:36:51;100862.38;;;18.19;35.34
70256;BME280;57669;52.624;-1.688;2022-08-19T09:39:17;100873.76;;;17.96;35.10
70256;BME280;57669;52.624;-1.688;2022-08-19T09:41:42;100869.37;;;17.46;34.93
70256;BME280;57669;52.624;-1.688;2022-08-19T09:44:08;100864.85;;;18.04;34.64
70256;BME280;57669;52.624;-1.688;2022-08-19T09:46:34;100867.84;;;17.96;34.93
70256;BME280;57669;52.624;-1.688;2022-08-19T09:49:00;100866.25;;;17.30;35.30
70256;BME280;57669;52.624;-1.688;2022-08-19T09:51:26;100861.37;;;18.16;34.68
70256;BME280;57669;52.624;-1.688;2022-08-19T09:53:51;100874.00;;;18.74;34.41
70256;BME280;57669;52.624;-1.688;2022-08-19T09:56:19;100867.44;;;17.75;35.59
70256;BME280;57669;52.624;-1.688;2022-08-19T09:58:42;100877.12;;;18.18;35.59
70256;BME280;57669;52.624;-1.688;2022-08-19T10:01:09;100888.60;;;17.15;37.96
70256;BME280;57669;52.624;-1.688;2022-08-19T10:03:35;100888.94;;;17.29;38.57
70256;BME280;57669;52.624;-1.688;2022-08-19T10:06:01;100887.98;;;17.29;38.78
70256;BME280;57669;52.624;-1.688;2022-08-19T10:08:28;100884.03;;;16.55;39.26
70256;BME280;57669;52.624;-1.688;2022-08-19T10:10:50;100875.04;;;17.70;37.81
70256;BME280;57669;52.624;-1.688;2022-08-19T10:13:17;100878.68;;;17.51;37.04
70256;BME280;57669;52.624;-1.688;2022-08-19T10:15:42;100876.26;;;16.71;38.04
70256;BME280;57669;52.624;-1.688;2022-08-19T10:18:07;100867.72;;;17.17;36.73
70256;BME280;57669;52.624;-1.688;2022-08-19T10:20:32;100882.65;;;17.22;36.90
70256;BME280;57669;52.624;-1.688;2022-08-19T10:22:58;100878.21;;;16.82;37.73
70256;BME280;57669;52.624;-1.688;2022-08-19T10:25:24;100878.90;;;16.77;38.06
70256;BME280;57669;52.624;-1.688;2022-08-19T10:27:49;100888.93;;;16.86;37.88
70256;BME280;57669;52.624;-1.688;2022-08-19T10:30:15;100885.10;;;17.40;37.32
70256;BME280;57669;52.624;-1.688;2022-08-19T10:32:41;100884.52;;;17.31;34.50
70256;BME280;57669;52.624;-1.688;2022-08-19T10:35:07;100884.77;;;17.70;33.62
70256;BME280;57669;52.624;-1.688;2022-08-19T10:37:32;100883.86;;;17.17;33.85
70256;BME280;57669;52.624;-1.688;2022-08-19T10:39:58;100879.50;;;16.89;34.89
70256;BME280;57669;52.624;-1.688;2022-08-19T10:42:23;100876.02;;;18.06;33.60
70256;BME280;57669;52.624;-1.688;2022-08-19T10:44:49;100870.69;;;17.08;34.52
70256;BME280;57669;52.624;-1.688;2022-08-19T10:47:15;100875.70;;;17.27;35.04
70256;BME280;57669;52.624;-1.688;2022-08-19T10:49:42;100876.64;;;17.77;33.28
70256;BME280;57669;52.624;-1.688;2022-08-19T10:52:06;100878.59;;;18.00;32.86
70256;BME280;57669;52.624;-1.688;2022-08-19T10:54:32;100873.49;;;17.90;33.80
70256;BME280;57669;52.624;-1.688;2022-08-19T10:56:57;100875.23;;;17.75;33.85
70256;BME280;57669;52.624;-1.688;2022-08-19T10:59:25;100875.78;;;17.65;33.80
70256;BME280;57669;52.624;-1.688;2022-08-19T11:01:50;100874.70;;;18.10;33.25
70256;BME280;57669;52.624;-1.688;2022-08-19T11:04:14;100871.53;;;17.38;34.18
70256;BME280;57669;52.624;-1.688;2022-08-19T11:06:41;100872.59;;;17.24;34.15
70256;BME280;57669;52.624;-1.688;2022-08-19T11:09:06;100873.41;;;18.38;32.73
70256;BME280;57669;52.624;-1.688;2022-08-19T11:11:31;100865.08;;;19.22;31.23
70256;BME280;57669;52.624;-1.688;2022-08-19T11:13:57;100856.46;;;18.79;31.50
70256;BME280;57669;52.624;-1.688;2022-08-19T11:16:24;100861.37;;;19.09;30.68
70256;BME280;57669;52.624;-1.688;2022-08-19T11:18:50;100871.77;;;19.11;31.72
70256;BME280;57669;52.624;-1.688;2022-08-19T11:21:19;100871.90;;;18.41;31.98
70256;BME280;57669;52.624;-1.688;2022-08-19T11:23:40;100875.10;;;18.79;30.58
70256;BME280;57669;52.624;-1.688;2022-08-19T11:26:05;100871.51;;;18.85;30.86
70256;BME280;57669;52.624;-1.688;2022-08-19T11:28:31;100871.97;;;19.43;30.35
70256;BME280;57669;52.624;-1.688;2022-08-19T11:30:56;100868.13;;;19.31;31.50
70256;BME280;57669;52.624;-1.688;2022-08-19T11:33:22;100859.01;;;19.56;31.07
70256;BME280;57669;52.624;-1.688;2022-08-19T11:35:47;100857.21;;;18.97;31.45
70256;BME280;57669;52.624;-1.688;2022-08-19T11:38:13;100851.76;;;19.63;29.86
70256;BME280;57669;52.624;-1.688;2022-08-19T11:40:38;100848.42;;;19.40;30.76
70256;BME280;57669;52.624;-1.688;2022-08-19T11:43:04;100847.01;;;20.26;29.63
70256;BME280;57669;52.624;-1.688;2022-08-19T11:45:30;100846.35;;;21.65;28.17
70256;BME280;57669;52.624;-1.688;2022-08-19T11:47:55;100856.72;;;20.97;27.79
70256;BME280;57669;52.624;-1.688;2022-08-19T11:50:21;100849.70;;;20.25;28.77
70256;BME280;57669;52.624;-1.688;2022-08-19T11:52:46;100856.85;;;20.51;29.09
70256;BME280;57669;52.624;-1.688;2022-08-19T11:55:13;100855.04;;;20.75;28.24
70256;BME280;57669;52.624;-1.688;2022-08-19T11:57:38;100859.87;;;20.57;29.85
70256;BME280;57669;52.624;-1.688;2022-08-19T12:00:05;100860.65;;;19.62;30.42
70256;BME280;57669;52.624;-1.688;2022-08-19T12:02:29;100855.59;;;19.20;31.81
70256;BME280;57669;52.624;-1.688;2022-08-19T12:04:54;100867.46;;;19.19;32.36
70256;BME280;57669;52.624;-1.688;2022-08-19T12:07:20;100869.55;;;19.38;33.00
70256;BME280;57669;52.624;-1.688;2022-08-19T12:09:46;100867.85;;;19.08;33.59
70256;BME280;57669;52.624;-1.688;2022-08-19T12:12:11;100874.76;;;19.23;33.08
70256;BME280;57669;52.624;-1.688;2022-08-19T12:14:37;100875.48;;;19.81;32.21
70256;BME280;57669;52.624;-1.688;2022-08-19T12:17:03;100878.76;;;21.11;29.95
70256;BME280;57669;52.624;-1.688;2022-08-19T12:19:28;100868.21;;;20.66;29.84
70256;BME280;57669;52.624;-1.688;2022-08-19T12:21:58;100873.86;;;20.27;30.56
70256;BME280;57669;52.624;-1.688;2022-08-19T12:24:19;100876.23;;;20.24;30.48
70256;BME280;57669;52.624;-1.688;2022-08-19T12:26:45;100874.22;;;20.27;30.20
70256;BME280;57669;52.624;-1.688;2022-08-19T12:29:11;100872.84;;;21.21;29.41
70256;BME280;57669;52.624;-1.688;2022-08-19T12:31:36;100870.74;;;20.76;29.51
70256;BME280;57669;52.624;-1.688;2022-08-19T12:34:02;100877.34;;;21.83;27.84